createdAt,value
2019-03-21T00:00:22.122Z,15.58
2019-03-21T00:01:30.778Z,21.62
2019-03-21T00:02:36.410Z,20.08
2019-03-21T00:03:42.156Z,18.20
2019-03-21T00:04:50.606Z,22.15
2019-03-21T00:05:56.584Z,21.75
2019-03-21T00:07:03.620Z,16.70
2019-03-21T00:08:10.692Z,19.77
2019-03-21T00:09:17.964Z,22.32
2019-03-21T00:10:59.194Z,21.95
2019-03-21T00:12:06.992Z,17.55
2019-03-21T00:13:12.630Z,21.77
2019-03-21T00:14:25.648Z,18.27
2019-03-21T00:15:35.689Z,20.30
2019-03-21T00:16:41.684Z,19.70
2019-03-21T00:17:54.610Z,16.02
2019-03-21T00:19:00.875Z,15.55
2019-03-21T00:20:12.187Z,17.75
2019-03-21T00:21:17.711Z,19.82
2019-03-21T00:22:24.172Z,15.28
2019-03-21T00:23:30.133Z,21.87
2019-03-21T00:24:35.957Z,18.62
2019-03-21T00:25:43.531Z,13.83
2019-03-21T00:26:49.469Z,17.77
2019-03-21T00:27:55.185Z,17.67
2019-03-21T00:29:00.731Z,22.50
2019-03-21T00:30:10.463Z,16.65
2019-03-21T00:31:16.548Z,20.77
2019-03-21T00:32:22.286Z,16.60
2019-03-21T00:33:28.606Z,21.70
2019-03-21T00:34:34.237Z,19.98
2019-03-21T00:35:40.180Z,23.22
2019-03-21T00:36:46.132Z,20.55
2019-03-21T00:37:52.099Z,15.75
2019-03-21T00:38:57.756Z,20.70
2019-03-21T00:40:03.326Z,15.95
2019-03-21T00:41:09.491Z,16.57
2019-03-21T00:42:15.606Z,16.45
2019-03-21T00:43:21.372Z,20.08
2019-03-21T00:44:29.639Z,18.60
2019-03-21T00:45:35.319Z,16.90
2019-03-21T00:46:41.094Z,19.92
2019-03-21T00:47:48.691Z,21.82
2019-03-21T00:48:54.374Z,20.12
2019-03-21T00:49:59.996Z,22.67
2019-03-21T00:51:05.632Z,18.42
2019-03-21T00:52:11.706Z,18.10
2019-03-21T00:53:17.893Z,16.07
2019-03-21T00:54:23.479Z,18.05
2019-03-21T00:55:30.271Z,22.02
2019-03-21T00:56:35.899Z,18.60
2019-03-21T00:57:41.800Z,18.55
2019-03-21T00:58:47.412Z,16.97
2019-03-21T00:59:53.340Z,20.68
2019-03-21T01:00:59.778Z,23.83
2019-03-21T01:02:05.940Z,17.32
2019-03-21T01:03:13.014Z,19.15
2019-03-21T01:04:18.843Z,13.58
2019-03-21T01:05:24.574Z,19.40
2019-03-21T01:06:30.268Z,17.17
2019-03-21T01:07:35.950Z,14.90
2019-03-21T01:08:41.906Z,20.52
2019-03-21T01:09:47.834Z,14.70
2019-03-21T01:10:53.723Z,18.85
2019-03-21T01:12:00.227Z,16.67
2019-03-21T01:13:06.067Z,17.50
2019-03-21T01:14:11.921Z,16.90
2019-03-21T01:15:17.719Z,22.02
2019-03-21T01:16:23.252Z,18.52
2019-03-21T01:17:29.182Z,17.57
2019-03-21T01:18:35.592Z,19.00
2019-03-21T01:19:41.136Z,17.90
2019-03-21T01:20:46.748Z,14.63
2019-03-21T01:21:52.482Z,13.35
2019-03-21T01:22:58.082Z,16.25
2019-03-21T01:24:04.034Z,13.53
2019-03-21T01:25:12.313Z,19.70
2019-03-21T01:26:18.095Z,17.45
2019-03-21T01:27:24.035Z,15.45
2019-03-21T01:28:30.088Z,16.45
2019-03-21T01:29:35.703Z,16.90
2019-03-21T01:30:41.343Z,16.07
2019-03-21T01:31:46.939Z,16.32
2019-03-21T01:32:52.611Z,20.50
2019-03-21T01:33:58.238Z,15.13
2019-03-21T01:35:03.984Z,22.58
2019-03-21T01:36:10.087Z,20.52
2019-03-21T01:37:16.165Z,17.57
2019-03-21T01:38:21.876Z,16.17
2019-03-21T01:39:27.599Z,18.60
2019-03-21T01:40:34.483Z,17.60
2019-03-21T01:41:40.490Z,16.32
2019-03-21T01:42:46.539Z,22.20
2019-03-21T01:43:52.301Z,19.15
2019-03-21T01:44:58.085Z,17.17
2019-03-21T01:46:05.561Z,18.60
2019-03-21T01:47:11.299Z,16.67
2019-03-21T01:48:17.102Z,16.05
2019-03-21T01:49:23.138Z,17.20
2019-03-21T01:50:29.009Z,18.85
2019-03-21T01:51:34.765Z,15.83
2019-03-21T01:52:40.404Z,15.85
2019-03-21T01:53:46.035Z,17.98
2019-03-21T01:54:54.328Z,18.12
2019-03-21T01:55:59.988Z,20.02
2019-03-21T01:57:05.702Z,13.30
2019-03-21T01:58:11.948Z,21.97
2019-03-21T01:59:17.533Z,18.92
2019-03-21T02:00:26.127Z,16.12
2019-03-21T02:01:32.115Z,14.60
2019-03-21T02:02:37.693Z,17.52
2019-03-21T02:03:43.431Z,17.92
2019-03-21T02:04:49.148Z,22.67
2019-03-21T02:05:54.718Z,19.85
2019-03-21T02:07:00.770Z,14.75
2019-03-21T02:08:06.832Z,15.40
2019-03-21T02:09:12.423Z,17.77
2019-03-21T02:10:18.328Z,21.23
2019-03-21T02:11:24.045Z,16.25
2019-03-21T02:12:29.673Z,16.42
2019-03-21T02:13:35.666Z,17.12
2019-03-21T02:14:51.598Z,17.80
2019-03-21T02:15:50.720Z,16.52
2019-03-21T02:16:56.225Z,18.00
2019-03-21T02:18:01.906Z,18.32
2019-03-21T02:19:08.343Z,18.70
2019-03-21T02:20:15.207Z,17.40
2019-03-21T02:21:21.028Z,13.62
2019-03-21T02:22:26.610Z,14.93
2019-03-21T02:23:32.873Z,16.87
2019-03-21T02:24:38.515Z,15.80
2019-03-21T02:25:44.059Z,13.22
2019-03-21T02:26:49.736Z,18.82
2019-03-21T02:27:55.578Z,15.63
2019-03-21T02:29:01.202Z,16.27
2019-03-21T02:30:09.534Z,15.23
2019-03-21T02:31:15.186Z,19.55
2019-03-21T02:32:21.024Z,15.55
2019-03-21T02:33:29.310Z,15.98
2019-03-21T02:34:34.883Z,14.43
2019-03-21T02:35:41.007Z,16.10
2019-03-21T02:36:48.169Z,21.35
2019-03-21T02:37:53.765Z,19.95
2019-03-21T02:38:59.469Z,16.12
2019-03-21T02:40:05.895Z,17.80
2019-03-21T02:41:11.797Z,17.70
2019-03-21T02:42:17.496Z,14.05
2019-03-21T02:43:23.478Z,15.08
2019-03-21T02:44:29.198Z,15.40
2019-03-21T02:45:35.261Z,17.30
2019-03-21T02:46:40.967Z,14.65
2019-03-21T02:47:47.371Z,18.17
2019-03-21T02:48:53.370Z,17.37
2019-03-21T02:49:59.074Z,17.23
2019-03-21T02:51:05.882Z,19.27
2019-03-21T02:52:11.927Z,14.50
2019-03-21T02:53:17.717Z,15.48
2019-03-21T02:54:23.325Z,26.80
2019-03-21T02:55:29.521Z,16.20
2019-03-21T02:56:35.653Z,17.27
2019-03-21T02:57:41.367Z,15.53
2019-03-21T02:58:47.122Z,15.55
2019-03-21T02:59:52.905Z,17.42
2019-03-21T03:01:00.866Z,15.65
2019-03-21T03:02:07.152Z,19.55
2019-03-21T03:03:13.381Z,20.70
2019-03-21T03:04:18.979Z,22.65
2019-03-21T03:05:25.931Z,15.88
2019-03-21T03:06:31.523Z,18.37
2019-03-21T03:07:36.997Z,20.37
2019-03-21T03:08:42.704Z,18.07
2019-03-21T03:09:48.799Z,17.40
2019-03-21T03:10:55.528Z,15.18
2019-03-21T03:12:01.088Z,20.97
2019-03-21T03:13:06.891Z,16.67
2019-03-21T03:14:12.572Z,19.17
2019-03-21T03:15:23.240Z,26.20
2019-03-21T03:16:26.690Z,18.25
2019-03-21T03:17:32.442Z,22.52
2019-03-21T03:18:38.080Z,18.55
2019-03-21T03:19:43.693Z,17.65
2019-03-21T03:20:49.464Z,20.55
2019-03-21T03:21:55.482Z,17.95
2019-03-21T03:23:01.629Z,20.12
2019-03-21T03:24:08.411Z,18.80
2019-03-21T03:25:14.810Z,18.98
2019-03-21T03:26:20.626Z,17.07
2019-03-21T03:27:26.485Z,21.20
2019-03-21T03:28:32.439Z,15.40
2019-03-21T03:29:38.061Z,19.02
2019-03-21T03:30:44.108Z,21.80
2019-03-21T03:31:49.826Z,19.00
2019-03-21T03:32:55.928Z,16.20
2019-03-21T03:34:02.011Z,17.48
2019-03-21T03:35:09.315Z,20.85
2019-03-21T03:36:15.455Z,18.40
2019-03-21T03:37:21.228Z,18.17
2019-03-21T03:38:26.853Z,17.42
2019-03-21T03:39:32.713Z,17.20
2019-03-21T03:40:41.361Z,16.55
2019-03-21T03:41:47.018Z,19.70
2019-03-21T03:42:52.747Z,15.50
2019-03-21T03:43:58.433Z,23.77
2019-03-21T03:45:04.708Z,17.85
2019-03-21T03:46:10.251Z,20.77
2019-03-21T03:47:15.854Z,18.55
2019-03-21T03:48:21.613Z,19.37
2019-03-21T03:49:27.557Z,19.40
2019-03-21T03:50:33.201Z,19.20
2019-03-21T03:51:38.734Z,19.17
2019-03-21T03:52:44.377Z,21.35
2019-03-21T03:53:50.384Z,20.60
2019-03-21T03:54:56.091Z,20.68
2019-03-21T03:56:01.878Z,15.53
2019-03-21T03:57:07.879Z,18.35
2019-03-21T03:58:15.336Z,16.07
2019-03-21T03:59:21.296Z,16.25
2019-03-21T04:00:27.118Z,22.87
2019-03-21T04:01:32.726Z,19.12
2019-03-21T04:02:38.750Z,17.17
2019-03-21T04:03:44.488Z,19.90
2019-03-21T04:04:50.271Z,19.95
2019-03-21T04:05:55.971Z,19.20
2019-03-21T04:07:01.634Z,17.02
2019-03-21T04:08:07.655Z,18.62
2019-03-21T04:09:13.757Z,25.00
2019-03-21T04:10:22.283Z,22.85
2019-03-21T04:11:28.004Z,17.20
2019-03-21T04:12:34.017Z,17.42
2019-03-21T04:13:39.715Z,17.23
2019-03-21T04:14:45.342Z,16.15
2019-03-21T04:15:53.247Z,16.70
2019-03-21T04:16:58.824Z,19.37
2019-03-21T04:18:04.529Z,20.68
2019-03-21T04:19:10.150Z,17.82
2019-03-21T04:20:16.995Z,16.93
2019-03-21T04:21:22.529Z,17.85
2019-03-21T04:22:28.622Z,18.15
2019-03-21T04:23:34.194Z,19.90
2019-03-21T04:24:39.812Z,17.12
2019-03-21T04:25:51.757Z,17.98
2019-03-21T04:26:57.473Z,17.15
2019-03-21T04:28:03.405Z,17.92
2019-03-21T04:29:09.003Z,22.07
2019-03-21T04:30:15.396Z,18.85
2019-03-21T04:31:21.519Z,18.50
2019-03-21T04:32:27.621Z,18.45
2019-03-21T04:33:34.093Z,22.15
2019-03-21T04:34:39.823Z,15.23
2019-03-21T04:35:46.074Z,26.05
2019-03-21T04:36:56.613Z,21.02
2019-03-21T04:38:02.440Z,17.82
2019-03-21T04:39:11.735Z,21.50
2019-03-21T04:40:17.656Z,18.00
2019-03-21T04:41:23.670Z,20.37
2019-03-21T04:42:29.381Z,17.52
2019-03-21T04:43:35.059Z,19.73
2019-03-21T04:44:40.725Z,17.07
2019-03-21T04:45:46.586Z,18.95
2019-03-21T04:46:52.265Z,21.65
2019-03-21T04:47:57.958Z,16.27
2019-03-21T04:49:03.483Z,21.02
2019-03-21T04:50:11.816Z,20.65
2019-03-21T04:51:17.424Z,18.45
2019-03-21T04:52:23.067Z,23.07
2019-03-21T04:53:28.780Z,17.27
2019-03-21T04:54:34.730Z,23.75
2019-03-21T04:55:40.435Z,19.82
2019-03-21T04:56:46.477Z,18.80
2019-03-21T04:57:55.548Z,19.60
2019-03-21T04:59:01.939Z,21.75
2019-03-21T05:00:11.212Z,22.35
2019-03-21T05:01:17.083Z,20.15
2019-03-21T05:02:22.871Z,20.90
2019-03-21T05:03:28.888Z,20.55
2019-03-21T05:04:34.918Z,24.35
2019-03-21T05:05:40.642Z,19.30
2019-03-21T05:06:47.084Z,21.75
2019-03-21T05:07:53.357Z,17.87
2019-03-21T05:08:59.468Z,20.68
2019-03-21T05:10:05.545Z,18.10
2019-03-21T05:11:11.222Z,25.08
2019-03-21T05:12:16.860Z,17.25
2019-03-21T05:13:22.839Z,18.30
2019-03-21T05:14:28.895Z,20.95
2019-03-21T05:15:36.780Z,18.65
2019-03-21T05:16:42.355Z,21.73
2019-03-21T05:17:48.921Z,29.18
2019-03-21T05:18:55.444Z,19.65
2019-03-21T05:20:01.234Z,21.02
2019-03-21T05:21:07.791Z,16.70
2019-03-21T05:22:13.522Z,18.40
2019-03-21T05:23:19.865Z,19.62
2019-03-21T05:24:26.437Z,21.00
2019-03-21T05:25:32.253Z,19.20
2019-03-21T05:26:38.608Z,18.73
2019-03-21T05:27:44.703Z,20.72
2019-03-21T05:28:50.375Z,20.65
2019-03-21T05:29:56.397Z,18.95
2019-03-21T05:31:05.159Z,20.72
2019-03-21T05:32:10.799Z,21.15
2019-03-21T05:33:16.811Z,20.62
2019-03-21T05:34:23.471Z,17.57
2019-03-21T05:35:29.528Z,26.12
2019-03-21T05:36:35.299Z,22.75
2019-03-21T05:37:41.496Z,22.35
2019-03-21T05:38:47.111Z,25.15
2019-03-21T05:39:52.726Z,23.30
2019-03-21T05:40:58.365Z,21.85
2019-03-21T05:42:07.709Z,24.23
2019-03-21T05:43:16.853Z,25.40
2019-03-21T05:44:27.428Z,22.98
2019-03-21T05:45:33.666Z,19.07
2019-03-21T05:46:39.363Z,27.13
2019-03-21T05:47:45.208Z,30.80
2019-03-21T05:48:51.096Z,23.00
2019-03-21T05:49:56.949Z,19.50
2019-03-21T05:51:03.017Z,25.85
2019-03-21T05:52:10.392Z,27.02
2019-03-21T05:53:16.093Z,25.25
2019-03-21T05:54:21.737Z,22.48
2019-03-21T05:55:27.549Z,33.55
2019-03-21T05:56:33.437Z,25.15
2019-03-21T05:57:39.621Z,23.65
2019-03-21T05:58:45.449Z,23.40
2019-03-21T05:59:51.170Z,19.02
2019-03-21T06:00:57.685Z,29.40
2019-03-21T06:02:03.403Z,21.60
2019-03-21T06:03:12.773Z,22.13
2019-03-21T06:04:18.450Z,24.77
2019-03-21T06:05:24.387Z,26.42
2019-03-21T06:07:02.744Z,26.93
2019-03-21T06:08:24.630Z,28.77
2019-03-21T06:09:30.417Z,25.00
2019-03-21T06:10:36.218Z,36.13
2019-03-21T06:11:44.295Z,29.52
2019-03-21T06:12:50.240Z,19.70
2019-03-21T06:13:56.055Z,30.02
2019-03-21T06:15:02.397Z,25.88
2019-03-21T06:16:11.758Z,38.63
2019-03-21T06:17:17.933Z,26.93
2019-03-21T06:18:49.173Z,33.08
2019-03-21T06:20:21.498Z,22.32
2019-03-21T06:22:16.355Z,24.50
2019-03-21T06:23:54.690Z,22.00
2019-03-21T06:25:41.238Z,26.25
2019-03-21T06:27:14.765Z,27.67
2019-03-21T06:28:19.404Z,19.80
2019-03-21T06:29:25.270Z,21.02
2019-03-21T06:30:31.230Z,22.27
2019-03-21T06:31:37.028Z,24.47
2019-03-21T06:32:42.829Z,19.98
2019-03-21T06:33:48.793Z,26.65
2019-03-21T06:34:54.672Z,22.52
2019-03-21T06:36:00.415Z,26.15
2019-03-21T06:37:06.277Z,25.75
2019-03-21T06:38:11.921Z,22.22
2019-03-21T06:39:17.708Z,23.98
2019-03-21T06:40:23.530Z,41.30
2019-03-21T06:41:29.275Z,42.15
2019-03-21T06:42:35.347Z,33.92
2019-03-21T06:43:40.981Z,27.32
2019-03-21T06:44:46.980Z,58.58
2019-03-21T06:45:52.644Z,31.42
2019-03-21T06:46:58.423Z,36.68
2019-03-21T06:48:04.177Z,37.67
2019-03-21T06:49:09.760Z,33.78
2019-03-21T06:50:15.796Z,34.27
2019-03-21T06:51:21.862Z,26.73
2019-03-21T06:52:27.473Z,20.02
2019-03-21T06:53:33.297Z,24.32
2019-03-21T06:54:39.259Z,27.22
2019-03-21T06:55:45.068Z,26.50
2019-03-21T06:56:50.687Z,18.10
2019-03-21T06:57:56.796Z,22.13
2019-03-21T06:59:02.823Z,23.42
2019-03-21T07:00:08.669Z,23.10
2019-03-21T07:01:14.906Z,29.72
2019-03-21T07:02:21.196Z,23.92
2019-03-21T07:03:26.986Z,29.65
2019-03-21T07:04:33.492Z,28.10
2019-03-21T07:05:39.279Z,27.70
2019-03-21T07:06:45.513Z,25.45
2019-03-21T07:07:51.423Z,24.95
2019-03-21T07:08:57.217Z,23.18
2019-03-21T07:10:03.303Z,23.10
2019-03-21T07:11:09.037Z,29.72
2019-03-21T07:12:14.772Z,19.75
2019-03-21T07:13:20.607Z,20.45
2019-03-21T07:14:26.369Z,25.25
2019-03-21T07:15:32.510Z,24.12
2019-03-21T07:16:38.538Z,23.52
2019-03-21T07:17:44.338Z,24.67
2019-03-21T07:18:50.309Z,23.47
2019-03-21T07:19:56.199Z,26.70
2019-03-21T07:21:02.191Z,20.30
2019-03-21T07:22:08.130Z,20.60
2019-03-21T07:23:13.778Z,28.38
2019-03-21T07:24:19.400Z,18.92
2019-03-21T07:25:25.229Z,20.35
2019-03-21T07:26:31.031Z,21.95
2019-03-21T07:27:36.805Z,25.92
2019-03-21T07:28:43.057Z,25.17
2019-03-21T07:29:48.722Z,31.45
2019-03-21T07:30:54.462Z,24.65
2019-03-21T07:32:00.143Z,27.37
2019-03-21T07:33:06.132Z,21.33
2019-03-21T07:34:11.794Z,25.68
2019-03-21T07:35:17.843Z,26.82
2019-03-21T07:36:26.164Z,25.25
2019-03-21T07:37:31.034Z,22.60
2019-03-21T07:38:36.877Z,35.38
2019-03-21T07:39:42.984Z,20.35
2019-03-21T07:40:49.095Z,25.77
2019-03-21T07:41:54.865Z,21.10
2019-03-21T07:43:00.606Z,24.65
2019-03-21T07:44:06.279Z,20.40
2019-03-21T07:45:12.713Z,27.93
2019-03-21T07:46:18.859Z,20.43
2019-03-21T07:47:24.805Z,25.10
2019-03-21T07:48:30.899Z,25.08
2019-03-21T07:49:36.523Z,20.48
2019-03-21T07:50:42.656Z,23.52
2019-03-21T07:51:48.874Z,18.85
2019-03-21T07:52:54.654Z,21.95
2019-03-21T07:54:00.994Z,25.17
2019-03-21T07:55:07.435Z,21.57
2019-03-21T07:56:13.321Z,22.50
2019-03-21T07:57:19.046Z,23.27
2019-03-21T07:58:25.360Z,20.82
2019-03-21T07:59:31.639Z,23.05
2019-03-21T08:00:37.358Z,28.38
2019-03-21T08:01:43.413Z,27.93
2019-03-21T08:02:49.668Z,19.17
2019-03-21T08:03:55.240Z,23.95
2019-03-21T08:05:02.577Z,19.77
2019-03-21T08:06:08.377Z,22.32
2019-03-21T08:07:14.303Z,19.35
2019-03-21T08:08:20.389Z,27.90
2019-03-21T08:09:26.140Z,20.20
2019-03-21T08:10:32.221Z,24.52
2019-03-21T08:11:37.865Z,24.98
2019-03-21T08:12:44.284Z,25.00
2019-03-21T08:13:50.022Z,23.07
2019-03-21T08:14:55.642Z,21.20
2019-03-21T08:16:01.468Z,20.88
2019-03-21T08:17:07.189Z,23.45
2019-03-21T08:18:13.590Z,25.00
2019-03-21T08:19:19.460Z,19.32
2019-03-21T08:20:25.205Z,21.35
2019-03-21T08:21:30.997Z,20.60
2019-03-21T08:22:36.862Z,20.50
2019-03-21T08:23:42.600Z,28.67
2019-03-21T08:24:48.397Z,24.52
2019-03-21T08:25:54.142Z,26.68
2019-03-21T08:27:00.024Z,26.00
2019-03-21T08:28:05.972Z,34.45
2019-03-21T08:29:11.600Z,24.55
2019-03-21T08:31:03.350Z,34.60
2019-03-21T08:32:09.606Z,21.52
2019-03-21T08:33:15.282Z,25.60
2019-03-21T08:34:21.436Z,19.77
2019-03-21T08:35:27.305Z,24.37
2019-03-21T08:36:33.279Z,23.35
2019-03-21T08:37:38.929Z,25.40
2019-03-21T08:38:45.029Z,42.85
2019-03-21T08:39:50.728Z,25.23
2019-03-21T08:40:57.227Z,41.35
2019-03-21T08:42:02.955Z,32.33
2019-03-21T08:43:08.993Z,21.40
2019-03-21T08:44:15.029Z,27.00
2019-03-21T08:45:20.630Z,29.95
2019-03-21T08:46:26.389Z,38.25
2019-03-21T08:47:32.023Z,26.73
2019-03-21T08:48:38.171Z,27.10
2019-03-21T08:49:43.728Z,24.37
2019-03-21T08:50:49.392Z,28.83
2019-03-21T08:51:55.301Z,36.58
2019-03-21T08:53:00.982Z,41.98
2019-03-21T08:54:06.697Z,25.68
2019-03-21T08:55:12.528Z,32.58
2019-03-21T08:56:18.237Z,40.43
2019-03-21T08:57:24.021Z,33.48
2019-03-21T08:58:30.185Z,26.87
2019-03-21T08:59:36.730Z,25.17
2019-03-21T09:00:42.926Z,22.32
2019-03-21T09:01:48.665Z,34.20
2019-03-21T09:02:54.445Z,25.40
2019-03-21T09:04:00.246Z,35.85
2019-03-21T09:05:06.914Z,27.48
2019-03-21T09:06:12.863Z,27.25
2019-03-21T09:07:18.540Z,32.58
2019-03-21T09:08:25.494Z,20.92
2019-03-21T09:09:31.419Z,29.50
2019-03-21T09:10:37.424Z,31.55
2019-03-21T09:11:43.700Z,56.33
2019-03-21T09:12:49.475Z,33.42
2019-03-21T09:13:55.263Z,29.27
2019-03-21T09:15:01.018Z,35.05
2019-03-21T09:16:06.995Z,30.95
2019-03-21T09:17:12.785Z,27.32
2019-03-21T09:18:18.850Z,32.80
2019-03-21T09:19:24.579Z,30.12
2019-03-21T09:20:31.040Z,30.62
2019-03-21T09:21:36.740Z,27.93
2019-03-21T09:22:42.566Z,33.25
2019-03-21T09:23:48.571Z,24.47
2019-03-21T09:24:54.564Z,26.90
2019-03-21T09:26:00.724Z,25.52
2019-03-21T09:27:06.472Z,30.25
2019-03-21T09:28:14.214Z,36.75
2019-03-21T09:29:19.556Z,36.77
2019-03-21T09:30:25.272Z,33.48
2019-03-21T09:31:31.055Z,29.75
2019-03-21T09:32:37.188Z,26.07
2019-03-21T09:33:43.092Z,29.10
2019-03-21T09:34:48.940Z,28.87
2019-03-21T09:35:54.661Z,26.68
2019-03-21T09:37:00.416Z,26.35
2019-03-21T09:38:06.422Z,28.62
2019-03-21T09:39:12.185Z,24.50
2019-03-21T09:40:18.176Z,28.40
2019-03-21T09:41:23.702Z,23.90
2019-03-21T09:42:29.818Z,29.37
2019-03-21T09:43:36.251Z,25.45
2019-03-21T09:44:41.966Z,42.25
2019-03-21T09:45:48.114Z,28.27
2019-03-21T09:46:54.561Z,29.65
2019-03-21T09:48:00.190Z,25.88
2019-03-21T09:49:05.815Z,32.67
2019-03-21T09:50:13.210Z,25.23
2019-03-21T09:51:18.774Z,28.38
2019-03-21T09:52:24.814Z,27.80
2019-03-21T09:53:30.446Z,35.38
2019-03-21T09:54:36.084Z,26.80
2019-03-21T09:55:41.956Z,34.30
2019-03-21T09:56:47.923Z,28.77
2019-03-21T09:57:53.628Z,38.08
2019-03-21T09:59:00.940Z,36.50
2019-03-21T10:00:07.350Z,26.68
2019-03-21T10:01:12.976Z,29.98
2019-03-21T10:02:18.933Z,27.95
2019-03-21T10:03:24.648Z,32.40
2019-03-21T10:04:30.622Z,57.88
2019-03-21T10:05:36.437Z,55.17
2019-03-21T10:06:42.651Z,29.63
2019-03-21T10:07:48.652Z,27.48
2019-03-21T10:08:54.425Z,35.17
2019-03-21T10:10:00.182Z,34.43
2019-03-21T10:11:06.398Z,30.15
2019-03-21T10:12:12.776Z,28.92
2019-03-21T10:13:18.890Z,32.50
2019-03-21T10:14:24.609Z,32.42
2019-03-21T10:15:30.572Z,27.58
2019-03-21T10:16:38.307Z,23.92
2019-03-21T10:17:44.073Z,29.15
2019-03-21T10:18:50.010Z,28.42
2019-03-21T10:19:55.734Z,45.23
2019-03-21T10:21:01.863Z,34.27
2019-03-21T10:22:07.611Z,37.50
2019-03-21T10:23:13.327Z,46.85
2019-03-21T10:24:19.408Z,29.65
2019-03-21T10:25:26.674Z,34.03
2019-03-21T10:26:32.763Z,26.73
2019-03-21T10:27:38.376Z,29.50
2019-03-21T10:28:44.136Z,28.27
2019-03-21T10:29:50.028Z,34.65
2019-03-21T10:30:57.264Z,27.93
2019-03-21T10:32:13.865Z,36.33
2019-03-21T10:33:12.430Z,31.25
2019-03-21T10:34:18.225Z,30.68
2019-03-21T10:35:23.966Z,39.58
2019-03-21T10:36:29.802Z,23.70
2019-03-21T10:37:36.051Z,33.95
2019-03-21T10:38:41.734Z,29.05
2019-03-21T10:39:47.858Z,39.23
2019-03-21T10:40:54.794Z,34.00
2019-03-21T10:42:01.976Z,29.82
2019-03-21T10:43:10.535Z,27.42
2019-03-21T10:44:16.296Z,27.60
2019-03-21T10:45:22.743Z,27.40
2019-03-21T10:46:28.489Z,24.37
2019-03-21T10:47:34.040Z,27.00
2019-03-21T10:48:39.870Z,26.42
2019-03-21T10:49:45.620Z,27.30
2019-03-21T10:50:51.378Z,28.10
2019-03-21T10:51:57.777Z,27.95
2019-03-21T10:53:04.235Z,26.50
2019-03-21T10:54:09.920Z,75.72
2019-03-21T10:55:15.561Z,53.55
2019-03-21T10:56:21.196Z,26.42
2019-03-21T10:57:26.914Z,33.08
2019-03-21T10:58:33.960Z,28.57
2019-03-21T10:59:39.637Z,33.28
2019-03-21T11:00:45.318Z,28.75
2019-03-21T11:01:50.986Z,35.98
2019-03-21T11:02:57.043Z,36.40
2019-03-21T11:04:02.774Z,36.03
2019-03-21T11:05:08.451Z,29.02
2019-03-21T11:06:14.047Z,24.05
2019-03-21T11:07:17.959Z,26.55
2019-03-21T11:08:23.989Z,29.70
2019-03-21T11:09:30.430Z,26.37
2019-03-21T11:10:36.449Z,31.23
2019-03-21T11:11:42.675Z,26.70
2019-03-21T11:12:48.414Z,24.32
2019-03-21T11:13:54.031Z,29.87
2019-03-21T11:14:59.745Z,38.05
2019-03-21T11:16:06.912Z,28.57
2019-03-21T11:17:12.934Z,25.10
2019-03-21T11:18:19.365Z,23.85
2019-03-21T11:19:25.467Z,27.20
2019-03-21T11:20:33.029Z,28.30
2019-03-21T11:21:39.154Z,26.27
2019-03-21T11:22:44.972Z,23.47
2019-03-21T11:23:50.697Z,23.80
2019-03-21T11:24:56.470Z,25.15
2019-03-21T11:26:02.382Z,24.82
2019-03-21T11:27:08.074Z,21.93
2019-03-21T11:28:14.019Z,23.57
2019-03-21T11:29:19.698Z,22.32
2019-03-21T11:30:42.312Z,35.20
2019-03-21T11:31:47.986Z,19.85
2019-03-21T11:32:54.277Z,19.35
2019-03-21T11:34:00.413Z,24.15
2019-03-21T11:35:06.271Z,27.67
2019-03-21T11:36:12.201Z,25.85
2019-03-21T11:37:19.134Z,25.82
2019-03-21T11:38:24.972Z,33.70
2019-03-21T11:39:30.907Z,19.15
2019-03-21T11:40:37.036Z,17.12
2019-03-21T11:41:42.674Z,19.57
2019-03-21T11:42:48.360Z,18.52
2019-03-21T11:43:54.357Z,25.32
2019-03-21T11:45:00.743Z,19.20
2019-03-21T11:46:06.760Z,22.95
2019-03-21T11:47:13.066Z,19.67
2019-03-21T11:48:19.398Z,30.48
2019-03-21T11:49:25.441Z,32.30
2019-03-21T11:50:31.360Z,28.70
2019-03-21T11:51:37.271Z,24.00
2019-03-21T11:52:43.572Z,26.93
2019-03-21T11:53:49.910Z,26.25
2019-03-21T11:54:55.796Z,31.87
2019-03-21T11:56:01.927Z,30.37
2019-03-21T11:57:07.658Z,30.12
2019-03-21T11:58:13.752Z,33.00
2019-03-21T11:59:19.390Z,25.35
2019-03-21T12:00:25.281Z,22.52
2019-03-21T12:01:31.120Z,22.42
2019-03-21T12:02:37.237Z,23.07
2019-03-21T12:03:43.476Z,23.92
2019-03-21T12:04:49.102Z,23.85
2019-03-21T12:05:55.289Z,17.35
2019-03-21T12:07:00.920Z,19.60
2019-03-21T12:08:06.804Z,14.18
2019-03-21T12:09:12.489Z,18.35
2019-03-21T12:10:18.660Z,24.65
2019-03-21T12:11:24.516Z,13.98
2019-03-21T12:12:30.336Z,14.85
2019-03-21T12:13:35.895Z,11.80
2019-03-21T12:14:41.626Z,18.60
2019-03-21T12:15:47.480Z,19.27
2019-03-21T12:16:53.767Z,14.03
2019-03-21T12:17:59.690Z,13.55
2019-03-21T12:19:05.505Z,12.07
2019-03-21T12:20:11.711Z,21.40
2019-03-21T12:21:17.761Z,15.45
2019-03-21T12:22:29.846Z,19.50
2019-03-21T12:23:32.195Z,25.37
2019-03-21T12:24:38.172Z,22.80
2019-03-21T12:25:43.912Z,19.42
2019-03-21T12:26:49.476Z,19.65
2019-03-21T12:27:55.124Z,27.10
2019-03-21T12:29:00.894Z,13.95
2019-03-21T12:30:07.511Z,15.43
2019-03-21T12:31:14.693Z,24.20
2019-03-21T12:32:20.523Z,16.25
2019-03-21T12:33:26.269Z,20.45
2019-03-21T12:34:32.113Z,17.02
2019-03-21T12:35:38.312Z,17.60
2019-03-21T12:36:44.105Z,19.98
2019-03-21T12:37:49.949Z,25.30
2019-03-21T12:38:55.755Z,24.23
2019-03-21T12:40:01.446Z,13.80
2019-03-21T12:41:07.098Z,12.88
2019-03-21T12:42:13.371Z,19.67
2019-03-21T12:43:19.133Z,18.23
2019-03-21T12:44:24.669Z,15.98
2019-03-21T12:45:30.749Z,27.27
2019-03-21T12:46:36.427Z,23.07
2019-03-21T12:47:42.414Z,22.30
2019-03-21T12:48:48.048Z,17.48
2019-03-21T12:49:54.360Z,15.90
2019-03-21T12:51:00.725Z,31.68
2019-03-21T12:52:06.899Z,24.02
2019-03-21T12:53:12.972Z,27.37
2019-03-21T12:54:19.155Z,34.65
2019-03-21T12:55:24.898Z,29.00
2019-03-21T12:56:30.661Z,29.87
2019-03-21T12:57:39.406Z,23.45
2019-03-21T12:58:45.017Z,23.47
2019-03-21T12:59:50.767Z,17.23
2019-03-21T13:00:56.813Z,14.68
2019-03-21T13:02:02.462Z,19.23
2019-03-21T13:03:08.863Z,18.05
2019-03-21T13:04:14.964Z,24.23
2019-03-21T13:05:28.559Z,17.95
2019-03-21T13:06:34.123Z,46.37
2019-03-21T13:07:40.530Z,24.37
2019-03-21T13:08:46.142Z,24.37
2019-03-21T13:09:52.073Z,21.75
2019-03-21T13:10:57.755Z,21.15
2019-03-21T13:12:03.410Z,16.05
2019-03-21T13:13:09.914Z,18.10
2019-03-21T13:14:15.548Z,21.02
2019-03-21T13:15:29.753Z,18.37
2019-03-21T13:16:29.092Z,18.07
2019-03-21T13:17:34.795Z,27.98
2019-03-21T13:18:40.521Z,23.07
2019-03-21T13:19:46.182Z,19.37
2019-03-21T13:20:51.923Z,23.25
2019-03-21T13:21:57.675Z,18.95
2019-03-21T13:23:03.819Z,16.52
2019-03-21T13:24:10.837Z,21.37
2019-03-21T13:25:16.476Z,17.55
2019-03-21T13:26:22.245Z,18.10
2019-03-21T13:27:28.231Z,19.15
2019-03-21T13:28:33.909Z,17.95
2019-03-21T13:29:39.965Z,22.37
2019-03-21T13:30:45.708Z,16.65
2019-03-21T13:31:51.558Z,19.32
2019-03-21T13:32:57.235Z,19.82
2019-03-21T13:34:03.276Z,19.52
2019-03-21T13:35:09.634Z,18.75
2019-03-21T13:36:15.234Z,19.55
2019-03-21T13:37:20.990Z,21.45
2019-03-21T13:38:27.142Z,19.85
2019-03-21T13:39:33.110Z,21.07
2019-03-21T13:40:38.725Z,18.05
2019-03-21T13:41:45.520Z,17.57
2019-03-21T13:42:52.073Z,22.30
2019-03-21T13:43:57.706Z,19.35
2019-03-21T13:45:04.901Z,18.25
2019-03-21T13:46:10.975Z,14.73
2019-03-21T13:47:16.563Z,20.48
2019-03-21T13:48:22.310Z,16.35
2019-03-21T13:49:28.297Z,19.95
2019-03-21T13:50:34.234Z,17.73
2019-03-21T13:51:40.664Z,15.45
2019-03-21T13:52:46.283Z,13.90
2019-03-21T13:53:52.238Z,16.48
2019-03-21T13:54:57.811Z,18.48
2019-03-21T13:56:03.778Z,17.98
2019-03-21T13:57:09.612Z,32.95
2019-03-21T13:58:15.604Z,29.20
2019-03-21T13:59:21.167Z,19.23
2019-03-21T14:00:26.816Z,15.28
2019-03-21T14:01:32.784Z,14.93
2019-03-21T14:02:38.974Z,17.77
2019-03-21T14:03:44.896Z,16.40
2019-03-21T14:04:50.877Z,16.55
2019-03-21T14:05:56.788Z,19.00
2019-03-21T14:07:02.552Z,22.02
2019-03-21T14:08:08.197Z,14.15
2019-03-21T14:09:14.758Z,18.00
2019-03-21T14:10:20.556Z,19.50
2019-03-21T14:11:26.526Z,17.27
2019-03-21T14:12:32.334Z,21.93
2019-03-21T14:13:38.025Z,18.42
2019-03-21T14:14:43.803Z,22.87
2019-03-21T14:15:49.563Z,22.90
2019-03-21T14:16:55.890Z,19.85